Aviation Digital Data Service (ADDS)

Output produced by METARs form (1040 UTC 19 January 2019)
found at http://www.aviationweather.gov/metar/data/
 
KTMT 191035Z AUTO 00000KT 10SM OVC042 01/00 A3040 RMK AO2 T00070000
KBAM 191035Z AUTO 07005KT 10SM OVC042 02/02 A3035 RMK AO1
KBAM 190806Z 1908/2006 06004KT P6SM VCSH SCT010 BKN025 
     FM191000 19005KT P6SM VCSH OVC040 
     FM191800 21008KT P6SM SCT050 OVC250
       
KBVU 191035Z AUTO 30003KT 10SM FEW043 08/00 A3037 RMK AO2
KCXP 191035Z AUTO 00000KT 10SM BKN041 OVC050 04/01 A3034 RMK AO2
KCXP 190536Z 1906/2006 VRB04KT P6SM SCT030 OVC050 
     FM191000 VRB03KT P6SM BKN120 BKN200 
     FM192000 10008KT P6SM SCT120 BKN200 
     FM200300 22005KT P6SM FEW100 OVC180
       
KEKO 190956Z AUTO 25008KT 10SM OVC018 01/M01 A3034 RMK AO2 SLP288 T00111011
KEKO 191003Z 1910/2006 25008KT 5SM -SNRA BR BKN015 
     FM191800 21005KT P6SM -SHRA SCT015 OVC035 
     FM200100 20006KT P6SM SCT080 BKN200
       
KELY 190953Z AUTO 16008KT 10SM OVC028 M04/M07 A3038 RMK AO2 SLP300 T10391067
KELY 190527Z 1906/2006 18007KT P6SM BKN040 
     FM190900 18007KT P6SM OVC030 
     FM191700 VRB05KT P6SM BKN200
       
K05U 191035Z AUTO 22007KT 10SM FEW029 BKN035 OVC045 M01/M02 A3038 RMK A01
KHTH 191035Z AUTO 24003KT 10SM BKN075 04/00 A3034 RMK A01
KHND 190956Z AUTO 15007KT 10SM CLR 06/01 A3039 RMK AO2 SLP293 T00560011 $
KHND 190520Z 1906/2006 VRB05KT P6SM SCT250 
     FM191800 02006KT P6SM SCT250 
     FM200300 18006KT P6SM SCT250
       
KLAS 190956Z 27004KT 10SM BKN250 08/02 A3036 RMK AO2 SLP276 T00830022
KLAS 190838Z 1909/2012 24006KT P6SM BKN250 
     FM191500 VRB05KT P6SM SCT250
       
KVGT 190953Z AUTO 27005KT 10SM CLR 07/02 A3036 RMK AO2 SLP299 T00720022
KVGT 190520Z 1906/2006 VRB05KT P6SM SCT250
       
KLOL 190953Z AUTO 31003KT 10SM OVC044 04/02 A3035 RMK AO2 SLP285 T00390017
KMEV 191035Z AUTO 00000KT 10SM BKN041 OVC050 03/03 A3034 RMK AO2
KRTS 191035Z AUTO 00000KT 10SM OVC035 05/03 A3033 RMK AO2
KRNO 190955Z 05004KT 10SM BKN047 BKN110 03/01 A3034 RMK AO2 SLP270 T00330011
KRNO 190536Z 1906/2006 VRB04KT P6SM SCT040 BKN100 
     FM192000 22006KT P6SM SCT120 BKN200 
     FM200300 19010KT P6SM FEW100 OVC180
       
KTPH 190956Z AUTO 35008KT 10SM CLR 00/M02 A3040 RMK AO2 SLP292 T00001022
KTPH 190527Z 1906/2006 36005KT P6SM BKN250 
     FM191800 VRB05KT P6SM BKN250
       
KWMC 190956Z AUTO 19011KT 10SM OVC033 04/02 A3033 RMK AO2 SLP270 T00390017
KWMC 190903Z 1909/2006 20010KT P6SM VCSH SCT025 BKN035 
     FM192200 18009KT P6SM BKN200